Time;durP1;ratioP1;P1;durP2;ratioP2;P2;SDS_P1;SDS_P2;PMS_P1;PMS_P2;Temp;Humidity;BMP_temperature;BMP_pressure;BME280_temperature;BME280_humidity;BME280_pressure;Samples;Min_cycle;Max_cycle;Signal;HPM_P1;HPM_P2
2022/10/07 00:01:05;;;;;;;5.97;2.53;;;;;;;9.44;63.24;101652.34;10055716;29;20057;-75
2022/10/07 00:06:11;;;;;;;7.93;3.30;;;;;;;9.33;63.76;101660.97;10054896;29;20068;-76
2022/10/07 00:11:17;;;;;;;9.65;3.08;;;;;;;9.16;63.96;101645.81;10044573;29;20101;-75
2022/10/07 00:16:23;;;;;;;5.35;2.05;;;;;;;9.13;64.22;101643.28;10059997;29;20515;-76
2022/10/07 00:21:28;;;;;;;7.60;2.78;;;;;;;9.03;64.30;101637.59;10057414;29;20074;-77
2022/10/07 00:26:33;;;;;;;9.98;3.00;;;;;;;9.05;64.45;101635.69;10051475;29;20563;-77
2022/10/07 00:31:38;;;;;;;11.80;2.78;;;;;;;8.97;64.30;101632.56;10062452;29;20042;-77
2022/10/07 00:36:42;;;;;;;6.95;3.00;;;;;;;8.93;64.81;101636.34;10060666;29;20136;-78
2022/10/07 00:41:49;;;;;;;9.18;2.33;;;;;;;8.91;64.64;101621.28;10061053;29;20132;-76
2022/10/07 00:46:54;;;;;;;10.48;2.22;;;;;;;8.81;64.85;101616.44;10044294;29;20046;-75
2022/10/07 00:51:57;;;;;;;7.70;2.17;;;;;;;8.76;65.08;101613.16;10060553;29;20094;-76
2022/10/07 00:57:02;;;;;;;7.70;2.38;;;;;;;8.73;64.85;101609.78;10062289;29;20184;-76
2022/10/07 01:02:06;;;;;;;10.85;3.15;;;;;;;8.66;65.08;101600.31;10059982;29;20131;-76
2022/10/07 01:07:09;;;;;;;9.77;2.40;;;;;;;8.58;65.44;101604.28;10099750;23;20049;-78
2022/10/07 01:12:21;;;;;;;13.77;2.42;;;;;;;8.52;65.41;101598.38;10085017;29;20083;-78
2022/10/07 01:17:31;;;;;;;5.13;2.85;;;;;;;8.48;65.83;101589.66;10096768;29;20049;-78
2022/10/07 01:22:44;;;;;;;6.75;2.45;;;;;;;8.49;65.94;101587.84;10112412;29;20063;-78
2022/10/07 01:27:53;;;;;;;7.05;2.70;;;;;;;8.42;65.97;101573.88;10103075;29;20081;-78
2022/10/07 01:33:01;;;;;;;10.02;2.78;;;;;;;8.46;66.23;101562.09;10102902;29;20077;-78
2022/10/07 01:38:08;;;;;;;5.93;1.90;;;;;;;8.53;65.71;101559.94;10093538;29;20057;-78
2022/10/07 01:43:15;;;;;;;7.30;2.78;;;;;;;8.54;65.73;101559.88;10103402;29;20052;-78
2022/10/07 01:48:18;;;;;;;13.48;2.70;;;;;;;8.49;65.55;101548.53;10098456;29;20057;-78
2022/10/07 01:53:30;;;;;;;8.50;3.08;;;;;;;8.41;65.72;101545.38;10105262;29;20076;-78
2022/10/07 01:58:50;;;;;;;9.15;3.55;;;;;;;8.39;66.03;101542.78;10105333;29;20057;-78
2022/10/07 02:04:15;;;;;;;6.50;2.67;;;;;;;8.40;66.17;101540.97;10095127;29;20578;-77
2022/10/07 02:09:27;;;;;;;9.55;2.80;;;;;;;8.38;66.10;101524.09;10100782;29;20063;-79
2022/10/07 02:14:37;;;;;;;;;;;;;;;8.32;66.07;101524.44;10110392;29;20167;-79
2022/10/07 02:19:45;;;;;;;13.10;3.10;;;;;;;8.23;66.52;101528.47;10119324;29;19924;-79
2022/10/07 02:24:53;;;;;;;6.13;2.35;;;;;;;8.20;66.43;101520.63;10107726;29;20056;-77
2022/10/07 02:30:03;;;;;;;5.43;2.17;;;;;;;8.13;66.55;101509.34;10100419;29;20049;-78
2022/10/07 02:35:15;;;;;;;12.07;3.03;;;;;;;8.06;67.13;101491.88;10102249;29;20049;-77
2022/10/07 02:40:18;;;;;;;6.30;2.28;;;;;;;8.09;67.03;101490.84;10103951;29;20041;-77
2022/10/07 02:45:29;;;;;;;7.82;2.70;;;;;;;7.94;67.04;101479.16;10098419;29;20049;-78
2022/10/07 02:50:41;;;;;;;9.88;3.00;;;;;;;7.91;67.45;101485.53;10111694;29;20105;-77
2022/10/07 02:55:44;;;;;;;;;;;;;;;7.84;67.66;101478.75;10098336;29;20052;-78
2022/10/07 03:00:56;;;;;;;7.82;2.65;;;;;;;7.77;67.76;101476.50;10101809;29;19927;-77
2022/10/07 03:06:00;;;;;;;7.95;2.80;;;;;;;7.68;68.17;101462.69;10102785;29;20463;-77
2022/10/07 03:11:04;;;;;;;11.15;3.13;;;;;;;7.60;68.35;101470.22;10096825;29;20053;-77
2022/10/07 03:16:09;;;;;;;11.88;3.00;;;;;;;7.44;68.70;101461.25;10094158;29;20097;-77
2022/10/07 03:21:12;;;;;;;9.18;2.70;;;;;;;7.39;68.96;101453.47;10092846;29;20041;-77
2022/10/07 03:26:18;;;;;;;7.47;2.88;;;;;;;7.20;69.56;101450.84;10098992;29;20049;-77
2022/10/07 03:31:23;;;;;;;8.70;2.63;;;;;;;7.13;69.91;101451.22;10098539;29;20048;-77
2022/10/07 03:36:30;;;;;;;13.25;3.33;;;;;;;7.13;70.13;101445.88;10094475;29;20057;-77
2022/10/07 03:41:33;;;;;;;7.78;3.30;;;;;;;7.10;70.04;101441.53;10092389;29;20056;-78
2022/10/07 03:46:38;;;;;;;10.27;3.30;;;;;;;7.13;70.22;101438.75;10099991;29;20049;-77
2022/10/07 03:51:42;;;;;;;10.75;3.22;;;;;;;7.15;70.17;101442.19;10101740;29;20151;-78
2022/10/07 03:56:46;;;;;;;9.82;3.30;;;;;;;7.02;70.35;101435.72;10102612;29;20061;-78
2022/10/07 04:01:51;;;;;;;9.20;3.30;;;;;;;7.02;70.62;101425.94;10104140;29;20113;-78
2022/10/07 04:06:54;;;;;;;8.93;3.47;;;;;;;7.01;70.51;101429.50;10099056;29;20052;-78
2022/10/07 04:11:57;;;;;;;10.98;3.63;;;;;;;6.90;70.68;101420.31;10103147;29;20136;-79
2022/10/07 04:17:02;;;;;;;9.70;3.78;;;;;;;6.82;70.91;101415.31;10104984;29;20124;-79
2022/10/07 04:22:05;;;;;;;11.07;4.90;;;;;;;6.69;71.29;101420.41;10102563;29;20149;-79
2022/10/07 04:27:12;;;;;;;10.43;4.25;;;;;;;6.78;71.30;101411.94;10103498;29;20140;-79
2022/10/07 04:32:37;;;;;;;11.00;4.38;;;;;;;6.73;71.46;101408.63;10104368;29;20049;-79
2022/10/07 04:37:42;;;;;;;15.05;4.78;;;;;;;6.75;71.40;101404.06;10103629;29;20045;-79
2022/10/07 04:48:07;;;;;;;13.82;3.90;;;;;;;6.74;71.29;101404.13;10103449;29;20049;-79
2022/10/07 04:53:14;;;;;;;9.48;5.03;;;;;;;6.69;71.53;101388.34;10100725;29;20120;-79
2022/10/07 04:58:20;;;;;;;12.20;3.42;;;;;;;6.61;71.82;101394.06;10104519;29;20052;-78
2022/10/07 05:03:25;;;;;;;7.47;2.97;;;;;;;6.68;71.95;101388.41;10120742;29;20541;-78
2022/10/07 05:08:29;;;;;;;14.65;3.75;;;;;;;6.72;72.38;101380.19;10105323;29;20147;-78
2022/10/07 05:13:33;;;;;;;7.18;3.25;;;;;;;6.82;71.90;101385.94;10118004;29;20060;-77
2022/10/07 05:18:38;;;;;;;15.02;3.53;;;;;;;6.93;71.97;101382.75;10100858;29;20132;-77
2022/10/07 05:23:45;;;;;;;14.75;3.63;;;;;;;7.12;71.55;101388.03;10110800;29;20121;-79
2022/10/07 05:28:52;;;;;;;11.35;4.00;;;;;;;7.20;70.87;101385.84;10113424;29;20045;-79
2022/10/07 05:34:02;;;;;;;7.20;3.15;;;;;;;7.18;70.70;101379.72;10117060;29;20049;-79
2022/10/07 05:39:06;;;;;;;10.35;3.72;;;;;;;7.22;70.70;101387.50;10105095;29;20529;-79
2022/10/07 05:44:19;;;;;;;12.00;3.55;;;;;;;7.31;70.85;101372.78;10098650;29;20596;-80
2022/10/07 05:49:26;;;;;;;10.02;3.50;;;;;;;7.37;70.25;101372.47;10109489;29;20045;-79
2022/10/07 05:54:31;;;;;;;10.48;3.92;;;;;;;7.36;70.29;101367.22;10110085;29;20072;-79
2022/10/07 05:59:34;;;;;;;11.18;3.60;;;;;;;7.36;70.28;101362.72;10105861;29;20053;-79
2022/10/07 06:04:41;;;;;;;8.77;3.30;;;;;;;7.38;70.15;101360.84;10107971;29;20113;-79
2022/10/07 06:15:08;;;;;;;9.35;2.80;;;;;;;8.27;70.41;101349.81;10106067;29;21174;-79
2022/10/07 06:20:14;;;;;;;10.32;2.70;;;;;;;8.51;68.45;101347.59;10111375;29;20059;-79
2022/10/07 06:25:17;;;;;;;7.78;2.28;;;;;;;8.72;67.04;101340.13;10108535;29;20056;-79
2022/10/07 06:30:21;;;;;;;7.20;3.20;;;;;;;9.01;65.53;101343.78;10108479;29;21610;-78
2022/10/07 06:35:26;;;;;;;11.13;3.53;;;;;;;9.17;65.02;101344.59;10105971;29;20048;-77
2022/10/07 06:40:30;;;;;;;11.68;3.22;;;;;;;9.41;64.23;101339.59;10099411;29;20108;-79
2022/10/07 06:45:33;;;;;;;7.43;3.50;;;;;;;9.63;63.70;101347.16;10115654;29;20349;-78
2022/10/07 06:50:38;;;;;;;8.90;3.83;;;;;;;9.73;63.53;101347.44;10131618;29;20439;-79
2022/10/07 06:55:41;;;;;;;13.38;3.55;;;;;;;9.66;63.60;101338.06;10100085;29;20048;-78
2022/10/07 07:00:48;;;;;;;14.02;3.17;;;;;;;10.04;63.33;101341.06;10114894;29;20060;-80
2022/10/07 07:05:53;;;;;;;11.50;2.88;;;;;;;10.48;62.23;101349.91;10064043;29;20048;-79
2022/10/07 07:11:03;;;;;;;5.97;2.88;;;;;;;10.88;61.23;101342.72;10091137;29;20052;-79
2022/10/07 07:16:06;;;;;;;7.85;2.78;;;;;;;11.39;60.17;101336.63;10101435;29;20051;-79
2022/10/07 07:21:10;;;;;;;12.25;2.53;;;;;;;12.02;59.50;101335.72;10081923;29;20517;-79
2022/10/07 07:26:14;;;;;;;9.27;3.50;;;;;;;12.36;57.84;101339.53;10099969;29;20051;-77
2022/10/07 07:31:17;;;;;;;10.70;2.05;;;;;;;12.39;57.49;101341.13;10104790;29;20048;-79
2022/10/07 07:36:25;;;;;;;8.40;3.22;;;;;;;12.75;56.98;101326.78;10108719;29;20049;-78
2022/10/07 07:41:32;;;;;;;8.52;2.95;;;;;;;13.15;55.84;101328.25;10118652;29;20060;-78
2022/10/07 07:46:40;;;;;;;14.00;3.22;;;;;;;13.37;54.78;101328.34;10101895;29;20051;-78
2022/10/07 07:51:44;;;;;;;9.20;2.25;;;;;;;13.68;54.45;101324.06;10097764;29;20053;-78
2022/10/07 07:56:53;;;;;;;8.93;2.60;;;;;;;13.87;54.11;101328.03;10085106;29;20045;-77
2022/10/07 08:01:58;;;;;;;8.18;2.40;;;;;;;13.89;54.55;101318.81;10080188;29;20041;-77
2022/10/07 08:07:02;;;;;;;11.27;3.05;;;;;;;14.14;54.47;101317.69;10097531;29;20041;-77
2022/10/07 08:12:06;;;;;;;8.50;2.35;;;;;;;14.43;53.84;101309.06;10088017;29;20112;-78
2022/10/07 08:17:09;;;;;;;7.18;1.67;;;;;;;14.28;52.38;101316.56;10112718;29;20175;-78
2022/10/07 08:22:16;;;;;;;9.30;1.60;;;;;;;14.45;53.63;101311.63;10103095;29;20065;-77
2022/10/07 08:27:21;;;;;;;8.07;2.22;;;;;;;14.47;52.54;101305.13;10072835;29;20455;-77
2022/10/07 08:32:24;;;;;;;6.78;1.55;;;;;;;14.61;52.33;101303.97;10094837;29;20053;-77
2022/10/07 08:37:28;;;;;;;6.30;2.20;;;;;;;14.75;51.52;101300.09;10105303;29;20064;-77
2022/10/07 08:42:37;;;;;;;8.55;1.70;;;;;;;14.19;52.69;101294.84;10098217;29;20085;-77
2022/10/07 08:47:42;;;;;;;8.20;1.38;;;;;;;14.49;52.12;101288.78;10083933;29;20096;-76
2022/10/07 08:52:52;;;;;;;11.60;2.13;;;;;;;14.80;51.74;101277.06;10107618;29;20052;-77
2022/10/07 08:58:10;;;;;;;4.90;1.42;;;;;;;14.58;51.72;101269.06;10105201;29;20068;-77
2022/10/07 09:03:24;;;;;;;8.90;1.80;;;;;;;14.67;51.19;101256.63;10092084;29;20571;-77
2022/10/07 09:15:30;;;;;;;8.48;2.10;;;;;;;15.71;50.65;101239.44;10136879;29;20501;-78
2022/10/07 09:20:40;;;;;;;8.25;1.85;;;;;;;15.69;51.27;101244.16;10077277;29;20471;-78
2022/10/07 09:25:44;;;;;;;7.50;1.70;;;;;;;15.42;50.76;101237.50;10063386;29;20529;-79
2022/10/07 09:30:48;;;;;;;8.10;1.77;;;;;;;15.06;51.30;101241.53;10070941;29;20051;-79
2022/10/07 09:35:53;;;;;;;10.52;2.50;;;;;;;14.98;50.88;101238.63;10071858;29;20175;-78
2022/10/07 09:41:18;;;;;;;9.82;1.75;;;;;;;14.86;51.91;101226.16;10069912;29;20049;-79
2022/10/07 09:46:35;;;;;;;11.10;2.25;;;;;;;15.02;51.33;101230.09;10073834;29;20133;-79
2022/10/07 09:51:38;;;;;;;10.63;2.38;;;;;;;15.35;49.77;101227.34;10067172;29;20676;-79
2022/10/07 09:56:43;;;;;;;10.23;2.10;;;;;;;15.10;50.97;101223.19;10070952;29;20049;-79
2022/10/07 10:01:56;;;;;;;8.18;2.13;;;;;;;15.63;49.96;101212.19;10068388;29;20057;-79
2022/10/07 10:07:01;;;;;;;;;;;;;;;15.74;49.73;101206.66;10079496;29;20156;-78
2022/10/07 10:12:13;;;;;;;10.07;1.77;;;;;;;16.10;48.70;101209.78;10099879;29;19923;-79
2022/10/07 10:17:23;;;;;;;11.75;2.22;;;;;;;15.69;49.02;101198.13;10103756;29;20044;-79
2022/10/07 10:22:29;;;;;;;6.75;1.67;;;;;;;15.32;50.73;101181.56;10102843;29;22124;-79
2022/10/07 10:27:39;;;;;;;9.82;1.85;;;;;;;15.78;50.09;101178.31;10103542;29;20058;-79
2022/10/07 10:33:09;;;;;;;10.05;2.00;;;;;;;16.09;49.85;101170.94;10101235;29;20064;-79
2022/10/07 10:38:32;;;;;;;8.90;2.30;;;;;;;17.30;47.22;101164.09;10103934;29;20048;-79
2022/10/07 10:43:50;;;;;;;8.88;1.77;;;;;;;16.69;46.08;101159.97;10103978;29;20079;-80
2022/10/07 10:49:05;;;;;;;12.95;2.10;;;;;;;17.98;45.44;101155.59;10102735;29;20045;-80
2022/10/07 10:54:22;;;;;;;11.05;1.52;;;;;;;16.79;46.83;101144.53;10100282;29;20083;-79
2022/10/07 10:59:43;;;;;;;9.77;2.10;;;;;;;17.58;45.46;101147.78;10100227;29;20757;-80
2022/10/07 11:04:53;;;;;;;9.50;1.88;;;;;;;17.08;45.75;101127.28;10103202;29;20080;-79
2022/10/07 11:09:59;;;;;;;8.43;1.60;;;;;;;18.16;44.42;101113.97;10115779;29;20505;-78
2022/10/07 11:15:13;;;;;;;9.32;1.70;;;;;;;19.29;42.42;101110.31;10097141;29;20076;-77
2022/10/07 11:20:24;;;;;;;13.00;1.98;;;;;;;18.42;44.75;101084.94;10101123;29;20044;-77
2022/10/07 11:25:34;;;;;;;6.00;1.67;;;;;;;18.00;44.03;101087.50;10101534;29;20055;-78
2022/10/07 11:30:44;;;;;;;11.77;1.55;;;;;;;19.36;43.36;101077.78;10100950;29;20200;-78
2022/10/07 11:35:51;;;;;;;6.15;1.60;;;;;;;19.14;40.96;101073.81;10101460;29;20055;-77
2022/10/07 11:40:58;;;;;;;7.85;1.23;;;;;;;18.08;43.96;101063.09;10096951;29;20079;-77
2022/10/07 11:46:08;;;;;;;9.05;2.10;;;;;;;18.00;44.02;101053.00;10112499;29;20891;-78
2022/10/07 11:51:22;;;;;;;9.20;2.17;;;;;;;18.49;44.40;101037.03;10098203;29;20052;-78
2022/10/07 11:56:27;;;;;;;5.00;1.40;;;;;;;18.50;42.89;101035.19;10102347;29;20148;-76
2022/10/07 12:01:46;;;;;;;8.02;1.63;;;;;;;19.16;42.45;101017.31;10098915;29;20055;-79
2022/10/07 12:07:27;;;;;;;6.03;1.60;;;;;;;19.30;42.43;100994.88;10102482;29;20068;-79
2022/10/07 12:12:50;;;;;;;4.70;1.48;;;;;;;19.10;41.90;100983.44;10063588;29;20063;-78
2022/10/07 12:17:54;;;;;;;6.43;2.10;;;;;;;18.72;44.08;100972.03;10100687;29;20053;-78
2022/10/07 12:23:37;;;;;;;7.82;1.90;;;;;;;19.57;42.81;100966.50;10102381;29;20064;-79
2022/10/07 12:28:59;;;;;;;8.20;1.98;;;;;;;20.03;41.42;100955.94;10086665;29;20081;-78
2022/10/07 12:34:10;;;;;;;6.53;1.45;;;;;;;19.52;42.26;100952.50;10121385;29;20053;-77
2022/10/07 12:39:36;;;;;;;9.32;1.42;;;;;;;20.45;38.96;100935.75;10096513;29;20048;-78
2022/10/07 12:44:50;;;;;;;6.95;2.20;;;;;;;20.41;38.56;100937.13;10097575;29;20044;-79
2022/10/07 12:49:57;;;;;;;10.23;2.15;;;;;;;22.45;37.31;100921.13;10096477;29;20076;-79
2022/10/07 12:55:03;;;;;;;10.07;1.92;;;;;;;19.77;40.84;100937.03;10097259;29;20563;-78
2022/10/07 13:00:13;;;;;;;8.75;2.20;;;;;;;21.47;38.15;100913.00;10097907;29;20055;-78
2022/10/07 13:12:20;;;;;;;9.50;2.15;;;;;;;20.85;39.25;100909.31;10113032;29;20036;-80
2022/10/07 13:17:34;;;;;;;8.20;1.67;;;;;;;19.98;39.01;100892.03;10102930;29;20060;-79
2022/10/07 13:22:44;;;;;;;7.75;1.73;;;;;;;21.20;36.53;100899.72;10103877;29;20045;-80
2022/10/07 13:27:52;;;;;;;6.55;1.23;;;;;;;20.33;38.49;100888.06;10114025;29;20092;-79
2022/10/07 13:33:12;;;;;;;8.80;2.70;;;;;;;21.28;37.45;100876.94;10102958;29;20049;-79
2022/10/07 13:38:24;;;;;;;10.73;2.20;;;;;;;21.49;37.15;100850.81;10110535;29;20076;-81
2022/10/07 13:43:28;;;;;;;8.20;1.88;;;;;;;20.80;37.86;100865.31;10114310;29;20049;-80
2022/10/07 13:48:34;;;;;;;6.97;1.80;;;;;;;20.87;38.56;100858.09;10110805;29;20087;-80
2022/10/07 13:53:37;;;;;;;8.18;1.95;;;;;;;21.16;38.21;100846.47;10107070;29;20048;-80
2022/10/07 13:58:40;;;;;;;8.80;1.83;;;;;;;21.24;39.19;100834.63;10110512;29;20045;-81
2022/10/07 14:04:21;;;;;;;8.65;1.80;;;;;;;21.92;37.24;100824.59;10135717;29;20056;-81
2022/10/07 14:09:35;;;;;;;7.30;2.17;;;;;;;22.83;36.27;100818.81;10015409;29;20419;-81
2022/10/07 14:14:40;;;;;;;9.63;2.03;;;;;;;21.36;38.28;100805.81;10094205;29;20063;-81
2022/10/07 14:19:52;;;;;;;9.15;1.80;;;;;;;23.24;35.83;100799.00;10118907;29;20041;-80
2022/10/07 14:24:58;;;;;;;7.97;1.80;;;;;;;22.71;36.10;100794.69;10125988;29;20041;-81
2022/10/07 14:30:01;;;;;;;8.68;2.63;;;;;;;22.33;37.82;100789.38;10125044;29;20053;-81
2022/10/07 14:35:20;;;;;;;14.38;2.10;;;;;;;23.12;35.35;100791.31;10116508;29;20045;-81
2022/10/07 14:40:24;;;;;;;5.38;1.45;;;;;;;21.13;38.31;100774.97;10123648;29;20118;-81
2022/10/07 14:45:27;;;;;;;5.22;2.00;;;;;;;20.14;39.87;100772.00;10127847;29;20064;-80
2022/10/07 14:50:31;;;;;;;7.40;1.63;;;;;;;20.07;39.91;100774.56;10121359;29;20100;-80
2022/10/07 14:55:34;;;;;;;6.15;1.73;;;;;;;19.15;42.46;100763.22;10114023;29;20068;-80
2022/10/07 15:00:37;;;;;;;9.02;1.88;;;;;;;19.54;41.58;100761.63;10118365;29;20569;-81
2022/10/07 15:05:43;;;;;;;6.68;2.25;;;;;;;19.22;40.98;100755.22;10119469;29;20092;-82
2022/10/07 15:10:45;;;;;;;8.02;2.10;;;;;;;18.71;41.58;100749.94;10123866;29;20109;-81
2022/10/07 15:15:48;;;;;;;13.85;2.45;;;;;;;18.09;42.81;100749.44;10120645;29;20521;-80
2022/10/07 15:20:57;;;;;;;7.07;1.92;;;;;;;18.62;42.79;100741.91;10124845;29;20571;-81
2022/10/07 15:26:01;;;;;;;6.00;2.35;;;;;;;18.54;42.46;100737.31;10128080;29;20075;-81
2022/10/07 15:31:05;;;;;;;8.07;1.77;;;;;;;18.00;43.68;100726.81;10124727;29;20041;-82
2022/10/07 15:36:10;;;;;;;7.40;1.60;;;;;;;18.23;43.28;100734.38;10159550;29;20033;-79
2022/10/07 15:41:28;;;;;;;8.10;1.85;;;;;;;18.07;43.51;100727.00;10129117;29;20060;-81
2022/10/07 15:46:31;;;;;;;4.70;1.45;;;;;;;18.11;43.18;100717.53;10121141;29;20045;-80
2022/10/07 15:51:36;;;;;;;6.90;1.20;;;;;;;17.47;43.88;100714.34;10121377;29;20039;-81
2022/10/07 15:56:39;;;;;;;9.52;1.65;;;;;;;17.12;44.90;100712.56;10120295;29;20112;-81
2022/10/07 16:01:42;;;;;;;6.90;1.70;;;;;;;17.13;44.89;100704.28;10121511;29;20127;-81
2022/10/07 16:06:50;;;;;;;10.88;2.78;;;;;;;16.83;45.10;100692.00;10127088;29;20052;-81
2022/10/07 16:11:53;;;;;;;8.95;1.70;;;;;;;16.69;45.74;100692.56;10114434;29;20068;-81
2022/10/07 16:16:55;;;;;;;8.40;2.05;;;;;;;16.85;45.32;100700.00;10120935;29;20164;-81
2022/10/07 16:22:02;;;;;;;6.55;1.70;;;;;;;16.62;45.58;100692.34;10122820;29;20076;-81
2022/10/07 16:27:05;;;;;;;5.68;1.55;;;;;;;16.28;46.37;100689.47;10116810;29;20072;-81
2022/10/07 16:32:10;;;;;;;8.68;2.20;;;;;;;16.15;47.01;100687.09;10125934;29;20057;-82
2022/10/07 16:37:14;;;;;;;8.48;1.88;;;;;;;15.83;48.03;100687.63;10118008;29;20521;-80
2022/10/07 16:42:17;;;;;;;10.30;2.00;;;;;;;15.60;48.99;100687.16;10132666;29;20056;-80
2022/10/07 16:47:20;;;;;;;10.65;2.20;;;;;;;15.40;49.80;100676.41;10113483;29;20497;-81
2022/10/07 16:52:25;;;;;;;8.40;1.98;;;;;;;15.33;50.12;100677.09;10121028;29;20048;-80
2022/10/07 16:57:29;;;;;;;10.15;2.30;;;;;;;15.03;50.71;100670.97;10128777;29;20060;-80
2022/10/07 17:02:32;;;;;;;10.30;2.58;;;;;;;14.97;50.86;100666.97;10166098;29;20052;-80
2022/10/07 17:07:36;;;;;;;10.90;2.45;;;;;;;15.01;50.81;100672.94;10150699;29;20088;-82
2022/10/07 17:12:39;;;;;;;11.35;2.25;;;;;;;14.82;51.24;100680.09;10151482;29;20112;-81
2022/10/07 17:17:42;;;;;;;9.98;2.33;;;;;;;14.71;51.36;100669.44;10141964;29;20073;-82
2022/10/07 17:22:46;;;;;;;13.48;1.95;;;;;;;14.75;51.24;100667.28;10135454;29;20071;-82
2022/10/07 17:27:50;;;;;;;9.27;2.50;;;;;;;14.61;51.88;100676.69;10121522;29;20045;-81
2022/10/07 17:32:53;;;;;;;7.82;1.95;;;;;;;14.58;51.99;100666.19;10118121;29;20049;-82
2022/10/07 17:37:58;;;;;;;15.35;4.03;;;;;;;14.59;52.13;100670.63;10110767;29;20108;-81
2022/10/07 17:43:03;;;;;;;8.23;2.47;;;;;;;14.52;52.56;100670.31;10114465;29;20088;-81
2022/10/07 17:48:06;;;;;;;13.65;3.25;;;;;;;14.44;52.41;100670.16;10134914;29;20056;-82
2022/10/07 17:53:10;;;;;;;12.00;2.67;;;;;;;14.38;52.60;100668.00;10122149;29;20077;-82
2022/10/07 17:58:14;;;;;;;8.10;2.08;;;;;;;14.40;52.66;100667.88;10126146;29;20049;-81
2022/10/07 18:03:16;;;;;;;9.07;2.63;;;;;;;14.35;52.81;100663.75;10124627;29;20093;-81
2022/10/07 18:08:21;;;;;;;9.55;2.28;;;;;;;14.27;53.39;100660.91;10120530;29;20059;-82
2022/10/07 18:18:44;;;;;;;11.15;3.28;;;;;;;14.05;54.01;100656.63;10133829;29;20073;-82
2022/10/07 18:23:48;;;;;;;10.90;2.88;;;;;;;13.97;54.27;100661.00;10125977;29;20122;-81
2022/10/07 18:28:52;;;;;;;11.10;3.00;;;;;;;13.92;54.44;100654.16;10127008;29;20502;-81
2022/10/07 18:33:56;;;;;;;9.82;3.50;;;;;;;13.86;54.90;100651.19;10119604;29;20133;-82
2022/10/07 18:39:00;;;;;;;13.18;3.67;;;;;;;13.75;55.17;100643.22;10130957;29;20048;-80
2022/10/07 18:44:03;;;;;;;8.80;2.97;;;;;;;13.71;55.08;100643.50;10150772;29;20490;-82
2022/10/07 18:49:08;;;;;;;13.65;3.70;;;;;;;13.63;55.71;100634.34;10122398;29;20440;-82
2022/10/07 18:54:12;;;;;;;10.98;2.80;;;;;;;13.41;56.26;100628.22;10121991;29;20064;-82
2022/10/07 18:59:15;;;;;;;13.20;2.80;;;;;;;13.33;56.58;100625.31;10125915;29;20048;-82
2022/10/07 19:04:19;;;;;;;9.60;3.65;;;;;;;13.31;56.55;100629.97;10138825;29;20041;-81
2022/10/07 19:09:24;;;;;;;10.80;3.65;;;;;;;13.25;56.80;100622.44;10105068;29;20059;-80
2022/10/07 19:14:29;;;;;;;12.18;4.22;;;;;;;13.22;56.82;100623.56;10060434;29;20049;-80
2022/10/07 19:19:33;;;;;;;10.43;4.68;;;;;;;13.17;57.10;100619.56;10077029;29;20045;-80
2022/10/07 19:30:00;;;;;;;14.55;3.55;;;;;;;13.07;57.15;100624.91;10069413;29;20060;-80
2022/10/07 19:35:02;;;;;;;9.55;3.58;;;;;;;12.97;57.75;100619.47;10071875;29;20045;-80
2022/10/07 19:40:08;;;;;;;12.52;4.70;;;;;;;12.73;58.54;100618.91;10067607;29;20082;-80
2022/10/07 19:45:13;;;;;;;14.60;5.72;;;;;;;12.60;59.23;100619.09;10080932;29;20049;-80
2022/10/07 19:50:16;;;;;;;10.65;4.28;;;;;;;12.56;58.99;100613.13;10064818;29;20795;-78
2022/10/07 19:55:20;;;;;;;15.57;5.03;;;;;;;12.63;58.79;100608.06;10070414;29;20052;-81
2022/10/07 20:00:24;;;;;;;13.73;4.20;;;;;;;12.59;58.62;100602.09;10071277;29;20067;-80
2022/10/07 20:05:30;;;;;;;16.52;4.25;;;;;;;12.60;58.43;100595.69;10078836;29;20064;-80
2022/10/07 20:10:38;;;;;;;10.45;3.58;;;;;;;12.63;58.45;100593.72;10095366;29;20052;-81
2022/10/07 20:15:42;;;;;;;12.98;4.10;;;;;;;12.37;59.13;100599.53;10070404;29;20045;-80
2022/10/07 20:20:45;;;;;;;12.63;4.43;;;;;;;12.21;59.74;100594.56;10086855;29;20410;-81
2022/10/07 20:25:49;;;;;;;12.75;3.40;;;;;;;12.19;59.96;100601.06;10090144;29;20079;-81
2022/10/07 20:30:52;;;;;;;14.73;3.20;;;;;;;12.14;59.94;100596.91;10128296;29;20084;-80
2022/10/07 20:35:55;;;;;;;14.30;3.50;;;;;;;12.17;59.82;100595.78;10090973;29;20100;-79
2022/10/07 20:46:19;;;;;;;16.00;4.90;;;;;;;12.12;59.77;100589.91;10071769;29;20071;-81
2022/10/07 20:51:22;;;;;;;11.15;4.90;;;;;;;11.99;60.35;100581.19;10074289;29;20075;-81
2022/10/07 20:56:26;;;;;;;10.80;4.00;;;;;;;11.90;60.40;100567.53;10071141;29;20519;-80
2022/10/07 21:01:29;;;;;;;18.25;4.40;;;;;;;11.82;60.78;100569.13;10084432;29;20060;-79
2022/10/07 21:06:32;;;;;;;11.50;4.25;;;;;;;11.73;61.13;100576.97;10065161;29;20053;-80
2022/10/07 21:11:37;;;;;;;12.73;4.82;;;;;;;11.65;61.44;100576.75;10070249;29;20053;-81
2022/10/07 21:16:40;;;;;;;13.90;4.13;;;;;;;11.54;61.67;100579.47;10060718;29;20044;-80
2022/10/07 21:21:43;;;;;;;10.48;4.30;;;;;;;11.46;61.96;100579.25;10070657;29;20045;-81
2022/10/07 21:26:47;;;;;;;14.45;5.30;;;;;;;11.43;62.00;100576.81;10070226;29;20048;-80
2022/10/07 21:31:51;;;;;;;13.40;4.82;;;;;;;11.33;62.04;100562.44;10074086;29;20052;-80
2022/10/07 21:36:55;;;;;;;20.52;7.65;;;;;;;11.25;62.25;100569.28;10064410;29;20802;-80
2022/10/07 21:42:00;;;;;;;13.38;5.03;;;;;;;11.16;62.40;100567.34;10082003;29;20192;-78
2022/10/07 21:47:03;;;;;;;15.00;5.15;;;;;;;11.02;62.84;100551.41;10103060;29;20127;-79
2022/10/07 21:52:06;;;;;;;12.18;4.70;;;;;;;10.93;63.05;100549.47;10091732;29;20050;-81
2022/10/07 21:57:11;;;;;;;16.70;4.55;;;;;;;10.90;63.05;100529.06;10066538;29;20053;-80
2022/10/07 22:02:14;;;;;;;11.90;5.00;;;;;;;10.95;62.67;100539.47;10075943;29;20057;-81
2022/10/07 22:12:37;;;;;;;12.30;4.22;;;;;;;10.73;63.19;100532.25;10074857;29;20063;-80
2022/10/07 22:17:40;;;;;;;11.02;4.85;;;;;;;10.62;63.43;100535.78;10085237;29;20731;-80
2022/10/07 22:22:43;;;;;;;;;;;;;;;10.56;63.36;100526.38;10079639;29;20056;-80
2022/10/07 22:27:49;;;;;;;15.25;4.28;;;;;;;10.42;63.79;100523.91;10073825;29;20400;-80
2022/10/07 22:32:52;;;;;;;10.65;4.00;;;;;;;10.39;63.92;100519.66;10092814;29;20049;-79
2022/10/07 22:37:56;;;;;;;;;;;;;;;10.35;64.14;100512.81;10079570;29;20049;-80
2022/10/07 22:43:00;;;;;;;10.75;3.58;;;;;;;10.42;64.00;100512.31;10084146;29;19934;-80
2022/10/07 22:48:03;;;;;;;13.13;3.92;;;;;;;10.39;63.97;100508.03;10073073;29;20057;-80
2022/10/07 22:53:05;;;;;;;12.57;3.75;;;;;;;10.43;63.98;100503.31;10074526;29;20056;-80
2022/10/07 22:58:09;;;;;;;;;;;;;;;10.36;63.73;100501.06;10082679;29;20119;-79
2022/10/07 23:03:12;;;;;;;8.13;2.63;;;;;;;10.30;63.79;100498.03;10086478;29;20444;-79
2022/10/07 23:08:15;;;;;;;11.18;3.30;;;;;;;10.27;64.24;100492.91;10089956;29;20044;-80
2022/10/07 23:13:19;;;;;;;;;;;;;;;10.34;64.33;100489.63;10096396;29;20047;-80
2022/10/07 23:18:22;;;;;;;7.90;3.10;;;;;;;10.45;64.09;100483.41;10114521;29;20596;-79
2022/10/07 23:23:25;;;;;;;11.48;3.20;;;;;;;10.48;63.95;100477.78;10124039;29;20068;-78
2022/10/07 23:28:31;;;;;;;8.13;3.13;;;;;;;10.45;64.03;100471.78;10087581;29;21156;-80
2022/10/07 23:33:35;;;;;;;14.80;2.65;;;;;;;10.40;64.21;100474.84;10076757;29;20084;-80
2022/10/07 23:38:43;;;;;;;11.73;3.33;;;;;;;10.31;64.10;100468.38;10080168;29;20116;-79
2022/10/07 23:43:48;;;;;;;9.05;3.33;;;;;;;10.22;64.93;100469.09;10084616;29;20690;-80
2022/10/07 23:48:50;;;;;;;9.27;3.00;;;;;;;10.14;65.27;100458.09;10088646;29;20060;-80
2022/10/07 23:53:55;;;;;;;11.40;4.15;;;;;;;10.06;65.23;100464.06;10091932;29;20540;-79
2022/10/07 23:59:00;;;;;;;13.20;3.50;;;;;;;10.04;65.04;100459.78;10071278;29;20049;-79
